Time;durP1;ratioP1;P1;durP2;ratioP2;P2;SDS_P1;SDS_P2;PMS_P1;PMS_P2;Temp;Humidity;BMP_temperature;BMP_pressure;BME280_temperature;BME280_humidity;BME280_pressure;Samples;Min_cycle;Max_cycle;Signal;HPM_P1;HPM_P2
2022/04/11 00:00:18;;;;;;;4.10;2.20;;;;;;;8.07;28.92;100886.94;10061099;29;20246;-82
2022/04/11 00:05:22;;;;;;;3.03;2.17;;;;;;;8.51;28.30;100886.97;10073604;29;20253;-82
2022/04/11 00:10:24;;;;;;;3.97;2.43;;;;;;;8.19;28.80;100884.41;10059704;29;20241;-84
2022/04/11 00:15:27;;;;;;;4.93;2.47;;;;;;;8.45;28.51;100874.16;10053517;29;20214;-82
2022/04/11 00:20:29;;;;;;;2.77;2.20;;;;;;;8.52;28.60;100877.38;10059987;29;20312;-82
2022/04/11 00:25:32;;;;;;;3.60;2.43;;;;;;;8.66;28.92;100882.94;10035733;29;20246;-83
2022/04/11 00:30:35;;;;;;;3.90;2.20;;;;;;;8.62;28.94;100871.47;10056108;29;20246;-82
2022/04/11 00:35:37;;;;;;;2.23;1.87;;;;;;;8.25;29.01;100871.88;10041073;29;20298;-83
2022/04/11 00:40:39;;;;;;;4.27;2.03;;;;;;;8.39;28.98;100872.63;10063529;29;20350;-82
2022/04/11 00:45:42;;;;;;;5.40;2.33;;;;;;;8.17;29.24;100875.44;10045209;29;20222;-82
2022/04/11 00:50:44;;;;;;;3.10;1.93;;;;;;;7.97;29.87;100873.13;10029584;29;20211;-83
2022/04/11 00:55:46;;;;;;;3.10;2.13;;;;;;;8.39;29.36;100872.63;10029183;29;20218;-83
2022/04/11 01:00:49;;;;;;;4.00;2.30;;;;;;;8.22;29.26;100867.69;10029988;29;20207;-83
2022/04/11 01:05:51;;;;;;;4.60;2.07;;;;;;;8.16;29.06;100860.50;10059648;29;20571;-83
2022/04/11 01:10:54;;;;;;;4.10;1.80;;;;;;;8.47;28.13;100868.19;10041400;29;20223;-83
2022/04/11 01:16:03;;;;;;;2.87;1.60;;;;;;;8.42;28.64;100857.88;10032146;29;20676;-83
2022/04/11 01:21:08;;;;;;;3.70;1.80;;;;;;;8.33;28.25;100857.00;10028396;29;20712;-82
2022/04/11 01:26:11;;;;;;;2.87;1.47;;;;;;;7.60;28.96;100861.00;10029225;29;20259;-82
2022/04/11 01:31:16;;;;;;;2.87;1.03;;;;;;;8.44;27.63;100851.94;10013212;29;20743;-83
2022/04/11 01:36:18;;;;;;;5.17;1.30;;;;;;;7.60;28.55;100856.19;10021511;29;20232;-83
2022/04/11 01:41:21;;;;;;;3.83;1.10;;;;;;;7.73;28.20;100848.91;10021785;29;20237;-82
2022/04/11 01:46:24;;;;;;;2.43;1.00;;;;;;;7.83;28.05;100837.41;10035000;29;20230;-83
2022/04/11 01:51:29;;;;;;;2.33;1.00;;;;;;;7.98;27.65;100830.56;10065745;29;20671;-83
2022/04/11 01:56:31;;;;;;;2.10;1.03;;;;;;;7.98;28.02;100827.75;10043856;29;20306;-83
2022/04/11 02:01:35;;;;;;;2.33;1.10;;;;;;;8.26;27.42;100822.84;10051168;29;20557;-84
2022/04/11 02:06:38;;;;;;;2.67;0.80;;;;;;;8.07;27.75;100825.00;10065350;29;20234;-83
2022/04/11 02:11:40;;;;;;;2.57;1.07;;;;;;;8.18;27.46;100821.59;10050385;29;20211;-83
2022/04/11 02:16:44;;;;;;;1.77;1.40;;;;;;;7.99;27.85;100820.16;10034892;29;20238;-83
2022/04/11 02:21:46;;;;;;;2.03;1.03;;;;;;;8.84;26.88;100813.38;10034993;29;20278;-84
2022/04/11 02:26:49;;;;;;;1.80;1.20;;;;;;;8.78;26.55;100811.88;10034437;29;20231;-83
2022/04/11 02:31:51;;;;;;;2.40;1.77;;;;;;;8.62;27.09;100803.81;10049794;29;20206;-83
2022/04/11 02:36:54;;;;;;;3.13;1.10;;;;;;;8.14;27.53;100802.88;10019687;29;20211;-83
2022/04/11 02:41:57;;;;;;;3.17;1.20;;;;;;;8.33;27.22;100799.81;10018805;29;20214;-83
2022/04/11 02:47:00;;;;;;;1.93;0.90;;;;;;;8.29;27.35;100794.00;10033924;29;20234;-83
2022/04/11 02:52:02;;;;;;;2.20;1.30;;;;;;;8.46;27.28;100801.72;10064049;29;20239;-83
2022/04/11 02:57:06;;;;;;;2.90;1.33;;;;;;;7.91;27.61;100811.28;10044352;29;20214;-83
2022/04/11 03:02:08;;;;;;;2.30;1.20;;;;;;;7.54;28.52;100811.59;10033358;29;20218;-83
2022/04/11 03:07:12;;;;;;;1.80;1.07;;;;;;;7.42;28.69;100814.13;10051133;29;20268;-83
2022/04/11 03:12:15;;;;;;;4.17;1.50;;;;;;;7.45;28.48;100813.50;10009933;29;20219;-83
2022/04/11 03:17:18;;;;;;;2.13;1.13;;;;;;;8.20;27.34;100815.66;10030428;29;20298;-83
2022/04/11 03:22:20;;;;;;;2.80;1.30;;;;;;;8.86;26.68;100814.72;10047922;29;20194;-84
2022/04/11 03:27:28;;;;;;;4.97;1.20;;;;;;;8.72;26.86;100811.19;10032998;29;20230;-83
2022/04/11 03:32:31;;;;;;;1.63;1.00;;;;;;;9.00;26.69;100809.81;10032252;29;20290;-83
2022/04/11 03:37:36;;;;;;;2.70;1.80;;;;;;;8.77;26.99;100813.88;10047243;29;20619;-83
2022/04/11 03:42:49;;;;;;;3.00;1.60;;;;;;;9.30;26.75;100813.72;10007177;29;20218;-84
2022/04/11 03:47:51;;;;;;;2.67;1.50;;;;;;;8.95;27.37;100806.28;10031814;29;20214;-83
2022/04/11 03:52:58;;;;;;;1.73;1.60;;;;;;;8.94;27.98;100810.28;10046938;29;20202;-83
2022/04/11 03:58:01;;;;;;;2.43;1.20;;;;;;;8.89;28.28;100813.25;10047008;29;20271;-84
2022/04/11 04:03:10;;;;;;;3.90;1.70;;;;;;;8.37;27.65;100810.13;10032304;29;20231;-82
2022/04/11 04:08:17;;;;;;;4.20;1.20;;;;;;;8.25;27.55;100809.91;10046500;29;20237;-83
2022/04/11 04:13:29;;;;;;;5.47;1.40;;;;;;;8.49;27.56;100810.38;10031915;29;20202;-83
2022/04/11 04:18:33;;;;;;;2.97;1.47;;;;;;;8.90;27.01;100800.81;10044567;29;20230;-83
2022/04/11 04:23:37;;;;;;;2.67;1.53;;;;;;;8.75;27.04;100804.06;10030172;29;20230;-83
2022/04/11 04:28:40;;;;;;;6.70;1.40;;;;;;;8.42;27.67;100790.25;10045580;29;20215;-83
2022/04/11 04:33:42;;;;;;;3.80;1.33;;;;;;;8.08;27.98;100792.88;10029669;29;20207;-83
2022/04/11 04:38:47;;;;;;;2.47;1.17;;;;;;;8.11;27.75;100800.69;10045617;29;20247;-83
2022/04/11 04:43:49;;;;;;;6.60;1.97;;;;;;;8.73;27.03;100800.75;10029414;29;20226;-83
2022/04/11 04:48:54;;;;;;;3.63;1.50;;;;;;;8.03;28.04;100813.53;10030438;29;20696;-83
2022/04/11 04:53:59;;;;;;;4.00;1.40;;;;;;;8.50;27.37;100799.94;10028905;29;20215;-84
2022/04/11 04:59:04;;;;;;;2.13;1.30;;;;;;;8.63;27.65;100797.03;10027606;29;20215;-83
2022/04/11 05:04:09;;;;;;;2.17;1.40;;;;;;;9.13;26.86;100804.38;10027693;29;20230;-83
2022/04/11 05:09:12;;;;;;;4.70;2.57;;;;;;;9.00;27.46;100803.34;10028853;29;20206;-83
2022/04/11 05:14:17;;;;;;;7.83;1.70;;;;;;;8.69;27.53;100802.53;10012852;29;20616;-83
2022/04/11 05:19:20;;;;;;;2.50;1.37;;;;;;;8.74;28.04;100805.22;10052645;29;20616;-84
2022/04/11 05:24:23;;;;;;;5.30;2.03;;;;;;;8.41;28.85;100796.22;10026808;29;20652;-83
2022/04/11 05:29:27;;;;;;;6.50;2.10;;;;;;;8.48;28.69;100794.63;10031068;29;20210;-83
2022/04/11 05:34:29;;;;;;;3.70;2.17;;;;;;;8.66;28.93;100793.53;10067060;29;20199;-84
2022/04/11 05:39:34;;;;;;;2.93;1.80;;;;;;;8.43;28.31;100800.38;10034659;29;20680;-83
2022/04/11 05:44:37;;;;;;;5.43;2.13;;;;;;;8.23;28.15;100798.13;10049520;29;20230;-83
2022/04/11 05:49:40;;;;;;;9.23;1.93;;;;;;;8.31;27.66;100797.31;10032382;29;20241;-83
2022/04/11 05:54:42;;;;;;;7.33;1.30;;;;;;;8.01;28.20;100793.34;10024654;29;20331;-83
2022/04/11 05:59:45;;;;;;;3.13;1.30;;;;;;;8.74;27.13;100788.31;10007456;29;20239;-83
2022/04/11 06:04:47;;;;;;;4.20;1.53;;;;;;;9.18;26.54;100784.50;10016967;29;20327;-82
2022/04/11 06:09:50;;;;;;;2.23;1.10;;;;;;;8.76;26.84;100791.63;10011127;29;20298;-82
2022/04/11 06:14:56;;;;;;;1.00;0.90;;;;;;;8.08;27.74;100790.88;10028479;29;20315;-82
2022/04/11 06:19:59;;;;;;;2.70;0.70;;;;;;;8.07;27.71;100782.75;10027884;29;20265;-81
2022/04/11 06:25:05;;;;;;;1.33;1.10;;;;;;;8.01;28.26;100782.06;10043509;29;20334;-84
2022/04/11 06:30:07;;;;;;;2.20;1.00;;;;;;;8.15;27.88;100788.44;10021734;29;20238;-83
2022/04/11 06:35:14;;;;;;;3.23;1.20;;;;;;;8.58;27.24;100788.69;10011688;29;20250;-84
2022/04/11 06:40:17;;;;;;;1.97;0.90;;;;;;;9.67;26.30;100791.72;10048530;29;20245;-84
2022/04/11 06:45:20;;;;;;;1.90;1.03;;;;;;;9.26;26.37;100792.97;10059459;29;20556;-81
2022/04/11 06:50:22;;;;;;;3.80;1.00;;;;;;;8.76;27.28;100791.63;10023467;29;20246;-81
2022/04/11 06:55:25;;;;;;;1.87;0.93;;;;;;;9.58;26.21;100785.19;10053976;29;20262;-82
2022/04/11 07:00:28;;;;;;;1.60;1.10;;;;;;;9.35;26.20;100779.69;10054032;29;20241;-82
2022/04/11 07:05:30;;;;;;;3.43;1.00;;;;;;;8.96;27.70;100785.41;10037891;29;20401;-83
2022/04/11 07:10:33;;;;;;;1.93;0.97;;;;;;;9.62;26.60;100786.22;10038327;29;20512;-83
2022/04/11 07:15:35;;;;;;;1.63;0.90;;;;;;;10.13;26.21;100784.53;10038139;29;20564;-82
2022/04/11 07:20:38;;;;;;;2.53;0.90;;;;;;;10.38;26.17;100776.00;10011272;29;20341;-82
2022/04/11 07:25:40;;;;;;;1.13;0.80;;;;;;;10.37;25.86;100785.66;10045227;29;20262;-81
2022/04/11 07:30:43;;;;;;;7.97;1.50;;;;;;;11.60;24.55;100779.94;10034413;29;20238;-82
2022/04/11 07:35:45;;;;;;;3.80;1.20;;;;;;;10.75;25.55;100776.41;10035347;29;20233;-82
2022/04/11 07:40:48;;;;;;;5.60;1.10;;;;;;;11.03;25.58;100773.94;10026961;29;20239;-81
2022/04/11 07:45:51;;;;;;;3.07;1.13;;;;;;;11.27;25.25;100778.97;10036600;29;20573;-84
2022/04/11 07:50:53;;;;;;;4.80;0.80;;;;;;;11.62;24.52;100771.94;10063746;29;20210;-82
2022/04/11 07:55:55;;;;;;;2.30;1.00;;;;;;;11.56;25.18;100775.31;10048092;29;20605;-82
2022/04/11 08:00:58;;;;;;;2.43;0.90;;;;;;;11.17;25.12;100774.53;10069726;29;20242;-85
2022/04/11 08:06:00;;;;;;;3.23;1.10;;;;;;;11.29;25.31;100787.97;10059594;29;20314;-83
2022/04/11 08:11:03;;;;;;;1.80;1.00;;;;;;;11.45;24.95;100781.38;10035331;29;20210;-83
2022/04/11 08:16:05;;;;;;;3.53;0.97;;;;;;;11.41;25.22;100779.56;10059321;29;20258;-83
2022/04/11 08:21:08;;;;;;;2.13;1.60;;;;;;;11.37;24.99;100778.63;10060100;29;20238;-83
2022/04/11 08:26:11;;;;;;;2.73;1.50;;;;;;;12.74;23.84;100765.16;10064503;29;20277;-82
2022/04/11 08:31:13;;;;;;;3.03;1.40;;;;;;;12.74;23.63;100761.47;10076153;29;20301;-83
2022/04/11 08:36:15;;;;;;;3.43;1.40;;;;;;;12.77;23.75;100753.09;10060209;29;20203;-84
2022/04/11 08:41:18;;;;;;;2.27;1.27;;;;;;;12.73;23.57;100751.31;10046270;29;20234;-83
2022/04/11 08:46:21;;;;;;;4.03;1.10;;;;;;;13.09;23.80;100747.66;10044082;29;20266;-82
2022/04/11 08:51:23;;;;;;;1.97;1.10;;;;;;;13.18;23.70;100748.41;10056206;29;20241;-84
2022/04/11 08:56:25;;;;;;;2.87;1.27;;;;;;;13.26;22.90;100753.09;10041934;29;20277;-83
2022/04/11 09:01:27;;;;;;;3.53;1.43;;;;;;;13.22;22.83;100746.47;10058770;29;20286;-82
2022/04/11 09:06:33;;;;;;;3.90;1.50;;;;;;;13.06;22.87;100742.72;10054430;29;20258;-82
2022/04/11 09:11:37;;;;;;;3.33;1.40;;;;;;;13.37;22.54;100736.41;10052668;29;20237;-83
2022/04/11 09:16:49;;;;;;;1.87;1.00;;;;;;;13.11;22.49;100733.97;10065297;29;20310;-81
2022/04/11 09:21:54;;;;;;;1.97;1.10;;;;;;;13.01;22.64;100731.59;10067410;29;20305;-83
2022/04/11 09:26:57;;;;;;;1.70;1.07;;;;;;;13.27;21.50;100737.72;10024134;29;20320;-83
2022/04/11 09:32:04;;;;;;;1.87;1.10;;;;;;;12.38;22.53;100728.22;10033724;29;20250;-83
2022/04/11 09:37:08;;;;;;;2.30;1.20;;;;;;;13.60;21.82;100711.94;10017502;29;20302;-83
2022/04/11 09:42:10;;;;;;;5.27;1.23;;;;;;;14.08;20.63;100705.28;10037111;29;20536;-84
2022/04/11 09:47:13;;;;;;;2.80;1.30;;;;;;;13.79;20.63;100702.81;10054504;29;20249;-82
2022/04/11 09:52:16;;;;;;;3.33;1.37;;;;;;;14.57;20.63;100682.22;10035895;29;20692;-82
2022/04/11 09:57:18;;;;;;;4.53;1.60;;;;;;;15.15;19.92;100674.75;10031897;29;20238;-81
2022/04/11 10:02:21;;;;;;;3.67;1.33;;;;;;;14.63;21.06;100670.22;10042049;29;20235;-82
2022/04/11 10:07:24;;;;;;;4.70;1.73;;;;;;;14.11;20.96;100678.97;10049257;29;20285;-82
2022/04/11 10:12:27;;;;;;;3.43;1.40;;;;;;;14.45;21.43;100673.78;10037702;29;20234;-82
2022/04/11 10:17:29;;;;;;;2.43;1.27;;;;;;;15.35;20.43;100667.03;10044990;29;20270;-83
2022/04/11 10:22:35;;;;;;;3.33;1.60;;;;;;;15.59;19.28;100655.34;10016363;29;20266;-83
2022/04/11 10:27:38;;;;;;;3.07;1.53;;;;;;;15.18;19.53;100648.34;10049556;29;20257;-83
2022/04/11 10:32:55;;;;;;;3.50;1.27;;;;;;;15.16;19.64;100636.50;10039027;29;20632;-82
2022/04/11 10:37:57;;;;;;;2.60;1.30;;;;;;;15.68;19.54;100635.97;10047007;29;20561;-82
2022/04/11 10:43:00;;;;;;;4.27;1.43;;;;;;;14.75;19.58;100635.13;10075635;29;20527;-83
2022/04/11 10:48:03;;;;;;;1.00;0.90;;;;;;;14.86;19.56;100627.66;10063933;29;20241;-83
2022/04/11 10:53:09;;;;;;;3.07;1.00;;;;;;;16.58;17.87;100615.69;10057544;29;20214;-83
2022/04/11 10:58:20;;;;;;;1.50;0.80;;;;;;;14.93;19.06;100609.91;10059018;29;20241;-84
2022/04/11 11:03:22;;;;;;;1.00;0.80;;;;;;;15.32;19.49;100614.47;10044710;29;20507;-83
2022/04/11 11:08:45;;;;;;;2.77;1.33;;;;;;;15.84;18.43;100609.44;10050164;29;20333;-82
2022/04/11 11:13:48;;;;;;;4.10;1.40;;;;;;;15.47;18.94;100604.22;10042431;29;20246;-83
2022/04/11 11:18:52;;;;;;;2.90;1.20;;;;;;;16.51;18.78;100590.72;10055975;29;20270;-83
2022/04/11 11:29:28;;;;;;;3.40;1.20;;;;;;;16.56;17.68;100572.44;10056842;29;20261;-80
2022/04/11 11:34:33;;;;;;;5.13;1.17;;;;;;;16.69;17.45;100571.84;10057246;29;20520;-81
2022/04/11 11:39:37;;;;;;;3.37;1.07;;;;;;;15.73;17.67;100570.16;10070991;29;20238;-81
2022/04/11 11:44:50;;;;;;;2.30;0.93;;;;;;;16.19;17.49;100566.50;10038912;29;20250;-81
2022/04/11 11:49:52;;;;;;;4.32;1.33;;;;;;;15.51;17.58;100562.38;10066989;29;20239;-81
2022/04/11 11:54:55;;;;;;;1.63;1.10;;;;;;;15.98;17.20;100549.84;10032510;29;20529;-82
2022/04/11 12:00:02;;;;;;;1.67;0.70;;;;;;;15.29;17.96;100552.56;10053899;29;20643;-82
2022/04/11 12:05:24;;;;;;;3.88;1.35;;;;;;;16.86;17.32;100530.44;10040858;29;20273;-83
2022/04/11 12:10:26;;;;;;;2.20;1.13;;;;;;;16.87;17.67;100529.25;10039823;29;20235;-82
2022/04/11 12:15:34;;;;;;;5.17;1.43;;;;;;;18.30;16.25;100512.47;10016667;29;20218;-81
2022/04/11 12:20:37;;;;;;;3.13;0.90;;;;;;;15.57;16.93;100520.97;10045511;29;20648;-82
2022/04/11 12:25:50;;;;;;;3.40;1.33;;;;;;;17.02;16.94;100505.38;10019844;29;20234;-82
2022/04/11 12:31:01;;;;;;;4.00;1.20;;;;;;;16.23;17.21;100498.91;10051684;29;20286;-81
2022/04/11 12:36:11;;;;;;;5.33;1.60;;;;;;;17.52;16.80;100488.81;10041817;29;20586;-81
2022/04/11 12:41:36;;;;;;;2.85;0.98;;;;;;;17.63;16.73;100475.47;10028489;29;20219;-82
2022/04/11 12:46:41;;;;;;;3.07;1.57;;;;;;;17.19;16.82;100472.56;10022760;29;20705;-82
2022/04/11 12:51:57;;;;;;;2.87;1.17;;;;;;;16.29;17.57;100472.53;10044056;29;20207;-83
2022/04/11 12:57:00;;;;;;;2.20;1.07;;;;;;;16.43;17.73;100466.25;10021995;29;20202;-83
2022/04/11 13:02:07;;;;;;;3.13;1.33;;;;;;;17.19;17.28;100451.75;10019992;29;20522;-82
2022/04/11 13:07:10;;;;;;;3.40;1.37;;;;;;;17.14;16.71;100442.31;10044271;29;20271;-81
2022/04/11 13:12:14;;;;;;;3.87;0.70;;;;;;;15.72;16.78;100442.28;10026353;29;20669;-81
2022/04/11 13:22:58;;;;;;;1.00;0.90;;;;;;;17.57;15.99;100419.88;10049453;29;20199;-81
2022/04/11 13:28:00;;;;;;;5.25;0.93;;;;;;;17.71;16.07;100416.34;10037380;29;20238;-82
2022/04/11 13:33:02;;;;;;;4.72;1.15;;;;;;;17.37;16.61;100395.59;10021334;29;20219;-81
2022/04/11 13:38:04;;;;;;;3.80;1.73;;;;;;;16.84;16.58;100395.84;10036856;29;20207;-80
2022/04/11 13:43:06;;;;;;;2.50;1.10;;;;;;;16.94;15.84;100395.13;10048027;29;20206;-81
2022/04/11 13:48:14;;;;;;;3.72;1.08;;;;;;;18.46;14.75;100384.19;10045637;29;20302;-82
2022/04/11 13:53:17;;;;;;;2.35;1.10;;;;;;;16.36;16.71;100389.88;10046736;29;20270;-82
2022/04/11 13:58:19;;;;;;;2.33;1.43;;;;;;;16.71;16.35;100375.28;10028956;29;20704;-81
2022/04/11 14:03:21;;;;;;;1.63;0.80;;;;;;;17.14;16.13;100368.03;10017094;29;20274;-82
2022/04/11 14:08:24;;;;;;;1.57;0.70;;;;;;;17.68;15.73;100359.94;10042156;29;20262;-83
2022/04/11 14:13:26;;;;;;;2.20;0.60;;;;;;;18.72;15.05;100356.47;10057219;29;20302;-83
2022/04/11 14:18:29;;;;;;;3.70;1.20;;;;;;;17.88;14.74;100351.94;10041621;29;20270;-83
2022/04/11 14:23:32;;;;;;;2.30;0.80;;;;;;;17.67;15.60;100361.16;10039329;29;20230;-83
2022/04/11 14:28:35;;;;;;;2.35;0.60;;;;;;;18.95;14.35;100341.81;10055594;29;20343;-82
2022/04/11 14:33:38;;;;;;;1.95;0.80;;;;;;;18.16;16.16;100350.03;10040174;29;20232;-82
2022/04/11 14:38:42;;;;;;;1.88;0.80;;;;;;;19.02;15.26;100336.13;10036859;29;20609;-83
2022/04/11 14:43:44;;;;;;;4.03;0.90;;;;;;;18.53;15.17;100341.25;10021414;29;20302;-82
2022/04/11 14:48:46;;;;;;;1.40;1.02;;;;;;;18.98;15.05;100336.09;10042521;29;20299;-83
2022/04/11 14:53:49;;;;;;;4.03;1.30;;;;;;;19.17;14.73;100321.41;10039258;29;20218;-80
2022/04/11 14:58:51;;;;;;;1.45;0.70;;;;;;;16.94;15.43;100320.88;10055491;29;20234;-80
2022/04/11 15:03:53;;;;;;;3.05;0.75;;;;;;;18.12;14.54;100305.50;10040217;29;20297;-82
2022/04/11 15:08:55;;;;;;;2.65;0.93;;;;;;;18.82;14.96;100296.34;10025567;29;20397;-85
2022/04/11 15:13:57;;;;;;;1.80;0.77;;;;;;;18.30;14.91;100289.22;10039203;29;20238;-83
2022/04/11 15:19:00;;;;;;;1.17;0.50;;;;;;;17.58;15.81;100281.44;10034718;29;20277;-81
2022/04/11 15:24:04;;;;;;;3.03;0.85;;;;;;;18.31;15.84;100290.88;10042387;29;20544;-83
2022/04/11 15:29:06;;;;;;;3.00;0.70;;;;;;;19.33;14.47;100271.44;10048285;29;20883;-83
2022/04/11 15:34:09;;;;;;;2.95;1.60;;;;;;;18.21;17.63;100265.88;10044904;29;20270;-82
2022/04/11 15:39:20;;;;;;;4.87;2.00;;;;;;;18.87;18.26;100252.16;10038500;29;20504;-83
2022/04/11 15:44:24;;;;;;;2.57;2.20;;;;;;;18.23;18.22;100254.84;10044523;29;20206;-84
2022/04/11 15:49:27;;;;;;;3.85;2.28;;;;;;;17.96;19.14;100247.78;10046616;29;20226;-83
2022/04/11 15:54:29;;;;;;;5.03;2.10;;;;;;;17.81;18.71;100239.13;10028582;29;20206;-83
2022/04/11 15:59:32;;;;;;;5.47;2.58;;;;;;;17.49;19.56;100249.53;10029915;29;20513;-84
2022/04/11 16:04:34;;;;;;;4.63;2.57;;;;;;;18.87;18.41;100243.56;10058782;29;20636;-84
2022/04/11 16:09:37;;;;;;;5.47;2.93;;;;;;;17.83;19.66;100242.41;10028500;29;20227;-84
2022/04/11 16:14:39;;;;;;;4.53;2.67;;;;;;;17.99;19.77;100244.94;10028296;29;20485;-85
2022/04/11 16:19:42;;;;;;;3.97;2.63;;;;;;;17.80;19.34;100248.94;10006512;29;20226;-84
2022/04/11 16:24:44;;;;;;;3.03;2.73;;;;;;;17.43;19.22;100249.09;10044784;29;20289;-84
2022/04/11 16:29:49;;;;;;;5.13;3.17;;;;;;;17.37;20.08;100246.97;10044965;29;20222;-84
2022/04/11 16:34:52;;;;;;;2.63;2.30;;;;;;;17.95;19.68;100246.13;10060112;29;20271;-85
2022/04/11 16:40:14;;;;;;;5.72;3.05;;;;;;;16.93;21.08;100239.28;10043814;29;20202;-84
2022/04/11 16:45:16;;;;;;;6.25;3.67;;;;;;;16.70;21.39;100235.81;10043037;29;20206;-85
2022/04/11 16:50:18;;;;;;;5.63;3.00;;;;;;;17.42;20.36;100229.47;10027899;29;20235;-84
2022/04/11 16:55:22;;;;;;;8.73;5.40;;;;;;;16.66;21.41;100227.19;10060294;29;20239;-82
2022/04/11 17:00:25;;;;;;;5.53;3.27;;;;;;;16.79;20.85;100230.59;10044416;29;20247;-86
2022/04/11 17:05:27;;;;;;;7.37;3.50;;;;;;;17.24;20.77;100234.22;10032064;29;20528;-84
2022/04/11 17:10:29;;;;;;;3.60;3.13;;;;;;;17.05;20.79;100247.56;10043684;29;20273;-87
2022/04/11 17:20:52;;;;;;;2.95;2.42;;;;;;;17.29;20.76;100240.41;10073566;29;20233;-85
2022/04/11 17:25:56;;;;;;;8.27;3.30;;;;;;;18.07;20.28;100222.91;10075991;29;20648;-83
2022/04/11 17:30:59;;;;;;;5.00;2.40;;;;;;;16.92;21.97;100231.94;10028549;29;20266;-84
2022/04/11 17:36:02;;;;;;;5.03;2.40;;;;;;;17.12;21.21;100221.91;10035209;29;20238;-84
2022/04/11 17:41:05;;;;;;;4.43;2.27;;;;;;;17.62;20.69;100227.16;10029767;29;20230;-85
2022/04/11 17:46:09;;;;;;;9.00;2.60;;;;;;;17.13;20.99;100225.59;10046323;29;20606;-84
2022/04/11 17:51:11;;;;;;;2.90;2.03;;;;;;;17.52;20.98;100233.63;10040028;29;20266;-85
2022/04/11 17:56:14;;;;;;;3.13;2.40;;;;;;;17.08;21.26;100243.09;10046728;29;20381;-85
2022/04/11 18:01:16;;;;;;;4.70;2.13;;;;;;;17.08;22.07;100241.06;10026424;29;20292;-84
2022/04/11 18:06:22;;;;;;;6.47;2.40;;;;;;;17.14;20.97;100236.63;10026296;29;20270;-84
2022/04/11 18:11:24;;;;;;;2.83;2.27;;;;;;;17.34;20.60;100233.50;10011129;29;20365;-84
2022/04/11 18:16:26;;;;;;;4.43;2.57;;;;;;;17.20;20.75;100241.97;10020961;29;20263;-84
2022/04/11 18:21:29;;;;;;;7.77;2.73;;;;;;;17.08;21.03;100245.97;10018754;29;20272;-83
2022/04/11 18:26:31;;;;;;;4.63;2.80;;;;;;;16.61;21.77;100256.09;10006398;29;20271;-85
2022/04/11 18:31:35;;;;;;;5.00;2.60;;;;;;;17.07;21.36;100261.47;10004227;29;20291;-86
2022/04/11 18:36:38;;;;;;;4.20;2.20;;;;;;;17.07;21.78;100268.00;10006398;29;20314;-86
2022/04/11 18:41:41;;;;;;;16.10;9.57;;;;;;;16.98;21.83;100269.50;10030096;29;20247;-85
2022/04/11 18:46:43;;;;;;;5.80;2.90;;;;;;;17.01;21.64;100263.81;10030554;29;20370;-85
2022/04/11 18:51:46;;;;;;;5.97;2.60;;;;;;;16.94;22.15;100265.81;10019994;29;20249;-85
2022/04/11 18:56:49;;;;;;;4.77;3.00;;;;;;;16.48;22.56;100269.00;10012033;29;20246;-86
2022/04/11 19:01:51;;;;;;;5.67;3.37;;;;;;;16.31;23.54;100276.13;10006991;29;20339;-84
2022/04/11 19:06:54;;;;;;;5.97;3.17;;;;;;;16.49;23.44;100276.34;10011824;29;20267;-85
2022/04/11 19:11:56;;;;;;;7.73;2.97;;;;;;;15.94;24.35;100283.78;10031681;29;20299;-84
2022/04/11 19:17:00;;;;;;;6.67;3.17;;;;;;;16.37;22.74;100283.09;10004316;29;20267;-85
2022/04/11 19:22:05;;;;;;;4.67;3.20;;;;;;;16.41;23.44;100291.75;10030336;29;20295;-84
2022/04/11 19:27:27;;;;;;;2.80;2.30;;;;;;;16.37;23.93;100293.69;10039882;29;20253;-84
2022/04/11 19:32:30;;;;;;;6.03;2.87;;;;;;;16.11;24.17;100303.16;10032592;29;20328;-85
2022/04/11 19:37:36;;;;;;;12.17;7.13;;;;;;;16.02;24.36;100302.63;10015421;29;20243;-84
2022/04/11 19:42:39;;;;;;;6.03;3.47;;;;;;;15.96;24.60;100301.31;10020886;29;20230;-85
2022/04/11 19:53:02;;;;;;;8.57;4.30;;;;;;;15.67;24.92;100312.31;10045322;29;20226;-84
2022/04/11 19:58:08;;;;;;;5.17;3.50;;;;;;;15.66;24.74;100318.38;10057834;29;20230;-85
2022/04/11 20:03:17;;;;;;;4.93;2.90;;;;;;;15.13;24.44;100323.19;10626473;27;20565;-85
2022/04/11 20:08:19;;;;;;;5.60;3.10;;;;;;;15.57;24.51;100321.50;10603624;27;21408;-85
2022/04/11 20:13:22;;;;;;;7.60;2.90;;;;;;;15.67;23.72;100318.00;10581058;27;20205;-86
2022/04/11 20:18:25;;;;;;;5.33;2.40;;;;;;;15.43;23.91;100309.84;10617940;27;20571;-85
2022/04/11 20:23:28;;;;;;;4.73;2.70;;;;;;;15.29;23.59;100306.78;10634080;27;20201;-84
2022/04/11 20:28:31;;;;;;;6.43;1.67;;;;;;;15.08;23.68;100303.56;10615659;27;20212;-85
2022/04/11 20:33:34;;;;;;;3.93;1.90;;;;;;;15.10;23.05;100321.09;10619084;27;20201;-85
2022/04/11 20:38:37;;;;;;;5.53;2.13;;;;;;;15.21;22.64;100324.97;10605305;27;20209;-85
2022/04/11 20:43:39;;;;;;;6.40;2.50;;;;;;;15.28;22.48;100313.72;10577317;27;20605;-84
2022/04/11 20:48:42;;;;;;;7.47;2.33;;;;;;;14.68;24.33;100308.53;10616272;27;20604;-85
2022/04/11 20:53:45;;;;;;;4.57;1.87;;;;;;;14.42;24.03;100302.72;10605893;27;20546;-85
2022/04/11 20:58:47;;;;;;;2.33;1.83;;;;;;;14.76;23.81;100298.13;10627041;27;20632;-84
2022/04/11 21:03:50;;;;;;;2.43;1.83;;;;;;;14.66;23.53;100301.56;10606291;27;20204;-85
2022/04/11 21:08:52;;;;;;;3.00;1.70;;;;;;;14.37;24.41;100293.69;10626405;27;20265;-86
2022/04/11 21:13:54;;;;;;;4.50;1.90;;;;;;;14.70;23.71;100293.09;10553858;27;20283;-85
2022/04/11 21:18:57;;;;;;;7.13;2.23;;;;;;;14.54;24.27;100296.88;10545220;27;20276;-85
2022/04/11 21:23:59;;;;;;;5.33;1.80;;;;;;;14.06;24.09;100298.28;10524550;27;20215;-85
2022/04/11 21:29:01;;;;;;;4.03;1.70;;;;;;;14.46;23.77;100283.72;10543574;27;20224;-84
2022/04/11 21:34:04;;;;;;;4.13;1.77;;;;;;;14.22;24.55;100276.31;10544718;28;20209;-86
2022/04/11 21:39:06;;;;;;;4.17;1.87;;;;;;;14.20;24.83;100266.50;10573476;27;20222;-85
2022/04/11 21:44:08;;;;;;;1.53;1.23;;;;;;;14.09;24.51;100256.94;10583931;27;20197;-85
2022/04/11 21:49:12;;;;;;;2.60;1.60;;;;;;;13.83;25.13;100271.81;10604556;27;20243;-85
2022/04/11 21:54:14;;;;;;;2.70;1.30;;;;;;;13.96;24.48;100264.78;10585810;27;20610;-85
2022/04/11 21:59:16;;;;;;;2.43;1.57;;;;;;;13.64;25.20;100254.72;10563327;28;20269;-84
2022/04/11 22:04:19;;;;;;;4.07;1.90;;;;;;;13.98;24.24;100262.41;10556675;28;20235;-85
2022/04/11 22:09:21;;;;;;;2.43;1.63;;;;;;;13.90;25.59;100255.72;10582102;27;20197;-84
2022/04/11 22:14:24;;;;;;;1.43;1.13;;;;;;;13.35;26.20;100259.69;10552838;28;20233;-85
2022/04/11 22:19:26;;;;;;;2.23;1.57;;;;;;;13.68;26.47;100249.94;10533892;27;20238;-84
2022/04/11 22:24:29;;;;;;;5.50;2.03;;;;;;;13.73;26.46;100246.81;10536738;27;20233;-84
2022/04/11 22:29:31;;;;;;;3.83;1.23;;;;;;;13.72;26.58;100251.69;10532065;28;20335;-84
2022/04/11 22:34:35;;;;;;;4.10;1.83;;;;;;;13.75;26.29;100248.06;10582712;27;20262;-85
2022/04/11 22:39:39;;;;;;;2.60;1.27;;;;;;;13.94;25.42;100250.13;10571760;27;20690;-85
2022/04/11 22:44:41;;;;;;;5.23;1.63;;;;;;;13.38;26.03;100241.09;10501850;28;20638;-85
2022/04/11 22:49:43;;;;;;;4.50;1.40;;;;;;;13.47;25.62;100236.84;10582754;27;20193;-85
2022/04/11 22:54:45;;;;;;;5.83;1.27;;;;;;;13.91;24.71;100228.13;10596439;27;20915;-85
2022/04/11 22:59:52;;;;;;;4.77;1.60;;;;;;;13.56;25.20;100217.63;10564005;27;20625;-86
2022/04/11 23:04:54;;;;;;;3.33;1.60;;;;;;;13.88;23.87;100214.66;10566568;28;20590;-85
2022/04/11 23:09:56;;;;;;;3.13;1.63;;;;;;;13.85;24.35;100213.41;10554224;28;20202;-86
2022/04/11 23:14:58;;;;;;;4.90;1.40;;;;;;;13.43;24.47;100207.56;10584564;27;20219;-85
2022/04/11 23:20:00;;;;;;;2.40;1.57;;;;;;;13.83;24.76;100209.28;10596957;27;20264;-85
2022/04/11 23:25:03;;;;;;;3.83;1.77;;;;;;;13.24;25.39;100221.72;10626648;27;20205;-85
2022/04/11 23:30:06;;;;;;;5.43;1.70;;;;;;;13.82;24.71;100219.00;10610009;27;20189;-85
2022/04/11 23:35:08;;;;;;;3.17;1.23;;;;;;;13.83;24.96;100214.97;10626409;27;20254;-85
2022/04/11 23:45:31;;;;;;;1.70;1.60;;;;;;;13.47;26.45;100196.31;10606658;27;20202;-84